createdAt,value
2022-10-22T00:01:20.118Z,14.06
2022-10-22T00:03:47.906Z,14.02
2022-10-22T00:06:17.020Z,13.96
2022-10-22T00:08:44.798Z,13.92
2022-10-22T00:11:14.902Z,13.91
2022-10-22T00:13:43.303Z,13.88
2022-10-22T00:16:11.350Z,13.85
2022-10-22T00:18:39.464Z,13.84
2022-10-22T00:21:08.401Z,13.83
2022-10-22T00:23:37.573Z,13.81
2022-10-22T00:26:05.335Z,13.78
2022-10-22T00:28:33.045Z,13.77
2022-10-22T00:31:01.773Z,13.73
2022-10-22T00:33:30.973Z,13.72
2022-10-22T00:35:59.264Z,13.71
2022-10-22T00:38:27.088Z,13.71
2022-10-22T00:40:56.910Z,13.68
2022-10-22T00:43:28.497Z,13.66
2022-10-22T00:45:56.200Z,13.69
2022-10-22T00:48:28.234Z,13.69
2022-10-22T00:50:59.421Z,13.70
2022-10-22T00:53:30.960Z,13.70
2022-10-22T00:56:00.281Z,13.71
2022-10-22T00:58:30.566Z,13.72
2022-10-22T01:00:59.097Z,13.73
2022-10-22T01:03:26.817Z,13.74
2022-10-22T01:05:58.903Z,13.75
2022-10-22T01:08:34.995Z,13.76
2022-10-22T01:11:16.009Z,13.76
2022-10-22T01:13:54.532Z,13.77
2022-10-22T01:16:32.453Z,13.77
2022-10-22T01:19:12.295Z,13.77
2022-10-22T01:21:45.593Z,13.76
2022-10-22T01:24:37.826Z,13.76
2022-10-22T01:27:20.888Z,13.75
2022-10-22T01:29:52.950Z,13.73
2022-10-22T01:32:24.448Z,13.73
2022-10-22T01:34:58.079Z,13.72
2022-10-22T01:37:30.052Z,13.70
2022-10-22T01:39:58.927Z,13.70
2022-10-22T01:42:26.813Z,13.71
2022-10-22T01:44:55.620Z,13.71
2022-10-22T01:47:40.493Z,13.67
2022-10-22T01:50:32.174Z,13.64
2022-10-22T01:53:13.307Z,13.62
2022-10-22T01:55:48.847Z,13.61
2022-10-22T01:58:25.869Z,13.59
2022-10-22T02:01:03.453Z,13.59
2022-10-22T02:03:39.755Z,13.57
2022-10-22T02:06:15.588Z,13.55
2022-10-22T02:08:44.694Z,13.55
2022-10-22T02:11:13.836Z,13.54
2022-10-22T02:13:45.641Z,13.49
2022-10-22T02:16:22.730Z,13.47
2022-10-22T02:18:53.768Z,13.44
2022-10-22T02:21:21.479Z,13.41
2022-10-22T02:23:49.580Z,13.38
2022-10-22T02:26:22.998Z,13.36
2022-10-22T02:29:00.466Z,13.34
2022-10-22T02:31:33.410Z,13.33
2022-10-22T02:34:07.999Z,13.32
2022-10-22T02:36:36.456Z,13.30
2022-10-22T02:39:04.988Z,13.29
2022-10-22T02:41:33.133Z,13.28
2022-10-22T02:44:02.700Z,13.26
2022-10-22T02:46:31.838Z,13.24
2022-10-22T02:48:59.531Z,13.21
2022-10-22T02:51:27.222Z,13.21
2022-10-22T02:53:54.855Z,13.19
2022-10-22T02:56:22.580Z,13.19
2022-10-22T02:58:50.243Z,13.16
2022-10-22T03:01:18.149Z,13.13
2022-10-22T03:03:47.016Z,13.13
2022-10-22T03:06:15.447Z,13.08
2022-10-22T03:08:43.327Z,13.09
2022-10-22T03:11:11.229Z,13.05
2022-10-22T03:13:38.996Z,13.06
2022-10-22T03:16:07.404Z,13.07
2022-10-22T03:18:35.318Z,13.08
2022-10-22T03:21:07.161Z,13.08
2022-10-22T03:23:35.013Z,13.05
2022-10-22T03:26:02.991Z,13.08
2022-10-22T03:28:30.573Z,13.12
2022-10-22T03:30:58.243Z,13.09
2022-10-22T03:33:26.022Z,13.12
2022-10-22T03:35:53.851Z,13.12
2022-10-22T03:38:22.998Z,13.13
2022-10-22T03:40:51.155Z,13.12
2022-10-22T03:43:19.195Z,13.12
2022-10-22T03:45:46.912Z,13.14
2022-10-22T03:48:14.944Z,13.14
2022-10-22T03:50:42.565Z,13.14
2022-10-22T03:53:10.636Z,13.14
2022-10-22T03:55:42.087Z,13.12
2022-10-22T03:58:09.854Z,13.09
2022-10-22T04:00:37.834Z,13.09
2022-10-22T04:03:05.306Z,13.11
2022-10-22T04:05:33.521Z,13.05
2022-10-22T04:08:01.469Z,13.05
2022-10-22T04:10:28.938Z,13.07
2022-10-22T04:12:58.037Z,13.02
2022-10-22T04:15:28.099Z,13.02
2022-10-22T04:17:56.506Z,13.01
2022-10-22T04:20:24.233Z,13.00
2022-10-22T04:22:51.881Z,12.99
2022-10-22T04:25:19.495Z,12.98
2022-10-22T04:27:47.116Z,12.97
2022-10-22T04:30:16.533Z,12.97
2022-10-22T04:32:44.141Z,12.96
2022-10-22T04:35:11.860Z,12.93
2022-10-22T04:37:39.702Z,12.93
2022-10-22T04:40:09.105Z,12.92
2022-10-22T04:42:36.787Z,12.92
2022-10-22T04:45:04.862Z,12.92
2022-10-22T04:47:33.874Z,12.91
2022-10-22T04:50:01.578Z,12.91
2022-10-22T04:52:29.404Z,12.92
2022-10-22T04:54:57.046Z,12.91
2022-10-22T04:57:26.837Z,12.89
2022-10-22T04:59:54.462Z,12.89
2022-10-22T05:02:22.114Z,12.89
2022-10-22T05:04:51.162Z,12.88
2022-10-22T05:07:19.392Z,12.87
2022-10-22T05:09:47.084Z,12.88
2022-10-22T05:12:14.661Z,12.87
2022-10-22T05:14:44.644Z,12.86
2022-10-22T05:17:12.590Z,12.85
2022-10-22T05:19:40.319Z,12.84
2022-10-22T05:22:09.365Z,12.83
2022-10-22T05:24:37.930Z,12.80
2022-10-22T05:27:05.625Z,12.80
2022-10-22T05:29:33.325Z,12.79
2022-10-22T05:32:00.951Z,12.78
2022-10-22T05:34:28.552Z,12.75
2022-10-22T05:36:56.173Z,12.73
2022-10-22T05:39:25.162Z,12.71
2022-10-22T05:41:53.935Z,12.71
2022-10-22T05:44:21.651Z,12.71
2022-10-22T05:46:49.285Z,12.70
2022-10-22T05:49:17.177Z,12.68
2022-10-22T05:51:44.697Z,12.69
2022-10-22T05:54:17.713Z,12.66
2022-10-22T05:56:47.242Z,12.65
2022-10-22T05:59:15.158Z,12.64
2022-10-22T06:01:42.700Z,12.66
2022-10-22T06:04:12.818Z,12.63
2022-10-22T06:06:44.170Z,12.64
2022-10-22T06:09:17.373Z,12.64
2022-10-22T06:11:47.335Z,12.65
2022-10-22T06:14:15.036Z,12.65
2022-10-22T06:16:43.256Z,12.65
2022-10-22T06:19:12.138Z,12.64
2022-10-22T06:21:39.906Z,12.63
2022-10-22T06:24:08.640Z,12.64
2022-10-22T06:26:36.284Z,12.64
2022-10-22T06:29:05.873Z,12.63
2022-10-22T06:31:36.669Z,12.63
2022-10-22T06:34:05.097Z,12.63
2022-10-22T06:36:32.844Z,12.64
2022-10-22T06:39:00.577Z,12.64
2022-10-22T06:41:29.501Z,12.66
2022-10-22T06:43:58.436Z,12.68
2022-10-22T06:46:27.575Z,12.68
2022-10-22T06:48:57.212Z,12.69
2022-10-22T06:51:25.023Z,12.69
2022-10-22T06:53:52.889Z,12.70
2022-10-22T06:56:21.526Z,12.72
2022-10-22T06:58:49.800Z,12.72
2022-10-22T07:01:19.593Z,12.74
2022-10-22T07:03:50.814Z,12.75
2022-10-22T07:06:19.045Z,12.78
2022-10-22T07:08:46.820Z,12.80
2022-10-22T07:11:17.237Z,12.85
2022-10-22T07:13:46.375Z,12.89
2022-10-22T07:16:15.554Z,12.92
2022-10-22T07:18:44.040Z,12.95
2022-10-22T07:21:14.968Z,12.99
2022-10-22T07:23:42.833Z,13.03
2022-10-22T07:26:10.940Z,13.07
2022-10-22T07:28:39.931Z,13.10
2022-10-22T07:31:08.733Z,13.13
2022-10-22T07:33:37.133Z,13.18
2022-10-22T07:36:10.227Z,13.21
2022-10-22T07:38:39.472Z,13.28
2022-10-22T07:41:07.301Z,13.33
2022-10-22T07:43:34.779Z,13.38
2022-10-22T07:46:02.922Z,13.42
2022-10-22T07:48:30.564Z,13.48
2022-10-22T07:50:58.753Z,13.59
2022-10-22T07:53:26.457Z,13.73
2022-10-22T07:55:55.613Z,13.85
2022-10-22T07:58:23.900Z,13.92
2022-10-22T08:00:52.306Z,14.00
2022-10-22T08:03:19.951Z,14.06
2022-10-22T08:05:48.292Z,14.14
2022-10-22T08:08:17.393Z,14.18
2022-10-22T08:10:45.519Z,14.22
2022-10-22T08:13:14.924Z,14.25
2022-10-22T08:18:15.978Z,14.34
2022-10-22T08:20:43.877Z,14.42
2022-10-22T08:23:11.522Z,14.48
2022-10-22T08:25:39.186Z,14.50
2022-10-22T08:28:06.915Z,14.54
2022-10-22T08:30:37.894Z,14.58
2022-10-22T08:33:05.939Z,14.60
2022-10-22T08:35:33.622Z,14.62
2022-10-22T08:38:01.854Z,14.61
2022-10-22T08:40:33.659Z,14.62
2022-10-22T08:43:14.258Z,14.64
2022-10-22T08:45:51.615Z,14.69
2022-10-22T08:48:33.453Z,14.77
2022-10-22T08:51:01.147Z,14.85
2022-10-22T08:53:37.881Z,14.92
2022-10-22T08:56:05.880Z,14.97
2022-10-22T08:58:40.521Z,15.00
2022-10-22T09:01:14.825Z,15.02
2022-10-22T09:03:51.067Z,15.02
2022-10-22T09:06:22.989Z,15.03
2022-10-22T09:08:51.828Z,15.03
2022-10-22T09:11:28.952Z,15.07
2022-10-22T09:13:57.932Z,15.12
2022-10-22T09:16:34.966Z,15.17
2022-10-22T09:19:12.866Z,15.24
2022-10-22T09:21:50.537Z,15.30
2022-10-22T09:24:33.762Z,15.36
2022-10-22T09:27:03.153Z,15.46
2022-10-22T09:29:34.769Z,15.57
2022-10-22T09:32:04.100Z,15.69
2022-10-22T09:34:32.250Z,15.87
2022-10-22T09:37:00.689Z,16.13
2022-10-22T09:39:32.922Z,16.40
2022-10-22T09:42:00.653Z,16.53
2022-10-22T09:44:28.120Z,16.57
2022-10-22T09:46:55.778Z,16.58
2022-10-22T09:49:25.105Z,16.56
2022-10-22T09:51:55.882Z,16.64
2022-10-22T09:54:25.521Z,16.78
2022-10-22T09:56:56.498Z,16.89
2022-10-22T09:59:32.501Z,16.95
2022-10-22T10:02:13.662Z,17.02
2022-10-22T10:04:54.005Z,17.02
2022-10-22T10:07:23.840Z,17.00
2022-10-22T10:09:52.598Z,16.98
2022-10-22T10:12:36.985Z,17.00
2022-10-22T10:15:16.072Z,17.07
2022-10-22T10:17:54.982Z,17.37
2022-10-22T10:20:35.778Z,17.75
2022-10-22T10:23:11.407Z,18.21
2022-10-22T10:25:54.309Z,18.48
2022-10-22T10:28:33.686Z,18.52
2022-10-22T10:31:11.897Z,18.58
2022-10-22T10:33:48.086Z,18.58
2022-10-22T10:36:26.264Z,18.57
2022-10-22T10:39:00.994Z,18.60
2022-10-22T10:41:42.216Z,18.60
2022-10-22T10:44:28.962Z,18.64
2022-10-22T10:47:05.177Z,18.71
2022-10-22T10:49:36.030Z,18.72
2022-10-22T10:52:17.492Z,18.74
2022-10-22T10:54:55.643Z,18.86
2022-10-22T10:57:40.084Z,18.81
2022-10-22T11:00:12.809Z,18.78
2022-10-22T11:03:10.283Z,18.78
2022-10-22T11:05:40.757Z,18.81
2022-10-22T11:08:15.622Z,18.81
2022-10-22T11:10:47.442Z,18.69
2022-10-22T11:13:25.605Z,18.70
2022-10-22T11:15:59.379Z,18.76
2022-10-22T11:18:33.271Z,18.85
2022-10-22T11:21:11.925Z,18.84
2022-10-22T11:23:45.832Z,18.93
2022-10-22T11:26:20.255Z,18.96
2022-10-22T11:28:51.944Z,18.92
2022-10-22T11:31:20.475Z,19.05
2022-10-22T11:34:00.526Z,19.13
2022-10-22T11:36:39.175Z,19.18
2022-10-22T11:39:08.159Z,19.26
2022-10-22T11:41:37.315Z,19.41
2022-10-22T11:44:11.639Z,19.92
2022-10-22T11:46:45.732Z,19.98
2022-10-22T11:49:23.193Z,19.90
2022-10-22T11:51:51.605Z,19.73
2022-10-22T11:54:32.120Z,19.53
2022-10-22T11:57:19.172Z,19.41
2022-10-22T11:59:50.959Z,19.75
2022-10-22T12:02:41.477Z,19.68
2022-10-22T12:05:36.879Z,20.25
2022-10-22T12:08:21.763Z,21.06
2022-10-22T12:11:16.395Z,21.14
2022-10-22T12:14:20.488Z,20.89
2022-10-22T12:16:56.950Z,20.83
2022-10-22T12:19:31.401Z,20.94
2022-10-22T12:22:03.016Z,20.92
2022-10-22T12:24:34.135Z,20.83
2022-10-22T12:27:03.182Z,20.82
2022-10-22T12:29:32.728Z,20.76
2022-10-22T12:32:04.277Z,20.66
2022-10-22T12:34:31.877Z,20.63
2022-10-22T12:36:59.553Z,20.55
2022-10-22T12:39:28.780Z,20.98
2022-10-22T12:41:56.565Z,21.70
2022-10-22T12:44:25.689Z,22.39
2022-10-22T12:46:56.864Z,23.06
2022-10-22T12:49:34.310Z,23.62
2022-10-22T12:52:04.096Z,24.07
2022-10-22T12:54:35.043Z,24.62
2022-10-22T12:57:03.502Z,24.97
2022-10-22T12:59:36.360Z,25.15
2022-10-22T13:02:13.307Z,25.03
2022-10-22T13:04:40.970Z,24.87
2022-10-22T13:07:21.867Z,24.67
2022-10-22T13:09:59.068Z,25.04
2022-10-22T13:12:28.636Z,25.36
2022-10-22T13:14:57.623Z,25.51
2022-10-22T13:17:40.338Z,25.59
2022-10-22T13:20:19.002Z,25.83
2022-10-22T13:23:00.187Z,26.07
2022-10-22T13:25:30.323Z,26.19
2022-10-22T13:28:00.119Z,25.93
2022-10-22T13:30:31.239Z,25.66
2022-10-22T13:33:00.760Z,25.38
2022-10-22T13:35:32.084Z,25.01
2022-10-22T13:38:00.258Z,24.72
2022-10-22T13:40:28.493Z,24.67
2022-10-22T13:42:56.140Z,24.73
2022-10-22T13:45:23.799Z,24.59
2022-10-22T13:47:54.472Z,24.50
2022-10-22T13:50:22.729Z,23.97
2022-10-22T13:52:52.352Z,23.62
2022-10-22T13:55:22.700Z,23.28
2022-10-22T13:57:50.615Z,22.95
2022-10-22T14:00:21.422Z,22.77
2022-10-22T14:02:51.551Z,22.55
2022-10-22T14:05:21.389Z,22.30
2022-10-22T14:07:49.758Z,22.07
2022-10-22T14:10:20.057Z,21.87
2022-10-22T14:12:52.371Z,21.83
2022-10-22T14:15:23.749Z,21.79
2022-10-22T14:17:54.821Z,21.74
2022-10-22T14:20:26.604Z,21.69
2022-10-22T14:22:54.676Z,21.68
2022-10-22T14:25:24.757Z,21.82
2022-10-22T14:27:52.520Z,21.99
2022-10-22T14:30:22.637Z,21.85
2022-10-22T14:32:50.974Z,21.73
2022-10-22T14:35:21.181Z,21.64
2022-10-22T14:37:50.696Z,21.46
2022-10-22T14:40:20.537Z,21.33
2022-10-22T14:42:50.014Z,21.30
2022-10-22T14:45:20.965Z,21.09
2022-10-22T14:47:48.889Z,20.94
2022-10-22T14:50:16.972Z,20.77
2022-10-22T14:52:44.839Z,20.58
2022-10-22T14:55:15.293Z,20.46
2022-10-22T14:57:43.356Z,20.37
2022-10-22T15:00:14.320Z,20.31
2022-10-22T15:02:42.149Z,20.18
2022-10-22T15:05:10.359Z,20.13
2022-10-22T15:07:39.599Z,20.09
2022-10-22T15:10:08.958Z,20.05
2022-10-22T15:12:37.998Z,19.94
2022-10-22T15:15:06.703Z,20.07
2022-10-22T15:17:34.441Z,20.13
2022-10-22T15:20:04.137Z,19.95
2022-10-22T15:22:35.022Z,19.80
2022-10-22T15:25:03.157Z,19.76
2022-10-22T15:27:31.704Z,19.74
2022-10-22T15:30:00.712Z,19.71
2022-10-22T15:32:29.437Z,19.69
2022-10-22T15:34:57.486Z,19.61
2022-10-22T15:37:25.104Z,19.53
2022-10-22T15:39:52.569Z,19.51
2022-10-22T15:42:20.274Z,19.46
2022-10-22T15:44:47.893Z,19.43
2022-10-22T15:47:16.675Z,19.35
2022-10-22T15:49:44.310Z,19.29
2022-10-22T15:52:12.513Z,19.21
2022-10-22T15:54:43.779Z,19.10
2022-10-22T15:57:11.380Z,18.99
2022-10-22T15:59:38.891Z,18.91
2022-10-22T16:02:07.275Z,18.83
2022-10-22T16:04:36.266Z,18.77
2022-10-22T16:07:03.938Z,18.75
2022-10-22T16:09:31.403Z,18.75
2022-10-22T16:11:59.067Z,18.73
2022-10-22T16:14:28.602Z,18.72
2022-10-22T16:16:59.501Z,18.72
2022-10-22T16:19:27.195Z,18.70
2022-10-22T16:21:59.381Z,18.70
2022-10-22T16:24:26.997Z,18.67
2022-10-22T16:26:55.210Z,18.65
2022-10-22T16:29:22.985Z,18.59
2022-10-22T16:31:50.637Z,18.54
2022-10-22T16:34:18.229Z,18.50
2022-10-22T16:36:45.911Z,18.43
2022-10-22T16:39:14.964Z,18.34
2022-10-22T16:41:42.597Z,18.26
2022-10-22T16:44:10.891Z,18.18
2022-10-22T16:46:38.971Z,18.08
2022-10-22T16:49:07.706Z,18.00
2022-10-22T16:51:36.130Z,17.97
2022-10-22T16:54:06.809Z,17.90
2022-10-22T16:56:38.810Z,17.80
2022-10-22T16:59:07.522Z,17.75
2022-10-22T17:01:39.690Z,17.70
2022-10-22T17:04:08.819Z,17.60
2022-10-22T17:06:36.746Z,17.52
2022-10-22T17:09:05.352Z,17.45
2022-10-22T17:11:36.348Z,17.38
2022-10-22T17:14:07.865Z,17.34
2022-10-22T17:16:35.525Z,17.31
2022-10-22T17:19:04.387Z,17.30
2022-10-22T17:21:32.034Z,17.23
2022-10-22T17:23:59.568Z,17.18
2022-10-22T17:26:27.722Z,17.11
2022-10-22T17:28:55.743Z,17.07
2022-10-22T17:31:27.885Z,17.02
2022-10-22T17:33:57.185Z,16.97
2022-10-22T17:36:31.795Z,16.87
2022-10-22T17:39:05.476Z,16.80
2022-10-22T17:41:35.142Z,16.74
2022-10-22T17:44:04.660Z,16.67
2022-10-22T17:46:33.819Z,16.60
2022-10-22T17:49:03.447Z,16.51
2022-10-22T17:51:32.458Z,16.49
2022-10-22T17:54:01.707Z,16.45
2022-10-22T17:56:31.311Z,16.38
2022-10-22T17:58:59.803Z,16.35
2022-10-22T18:01:29.824Z,16.29
2022-10-22T18:04:01.522Z,16.24
2022-10-22T18:06:29.810Z,16.20
2022-10-22T18:08:57.759Z,16.18
2022-10-22T18:11:27.768Z,16.15
2022-10-22T18:13:57.425Z,16.09
2022-10-22T18:16:25.598Z,16.02
2022-10-22T18:18:55.630Z,15.94
2022-10-22T18:21:27.743Z,15.90
2022-10-22T18:23:55.593Z,15.81
2022-10-22T18:26:26.014Z,15.72
2022-10-22T18:28:54.731Z,15.67
2022-10-22T18:31:24.704Z,15.63
2022-10-22T18:36:25.448Z,15.57
2022-10-22T18:38:55.747Z,15.55
2022-10-22T18:41:23.926Z,15.50
2022-10-22T18:43:51.742Z,15.45
2022-10-22T18:46:19.716Z,15.45
2022-10-22T18:48:48.025Z,15.40
2022-10-22T18:51:16.269Z,15.35
2022-10-22T18:53:58.897Z,15.29
2022-10-22T18:56:33.002Z,15.22
2022-10-22T18:59:00.713Z,15.18
2022-10-22T19:01:30.445Z,15.18
2022-10-22T19:03:58.322Z,15.20
2022-10-22T19:06:26.682Z,15.21
2022-10-22T19:08:56.028Z,15.17
2022-10-22T20:47:10.374Z,13.84
2022-10-22T20:51:36.542Z,13.83
2022-10-22T20:54:05.327Z,13.77
2022-10-22T20:56:33.359Z,13.73
2022-10-22T20:59:05.388Z,13.74
2022-10-22T21:01:36.731Z,13.76
2022-10-22T21:04:05.071Z,13.74
2022-10-22T21:06:34.186Z,13.74
2022-10-22T21:09:03.349Z,13.74
2022-10-22T21:11:31.094Z,13.72
2022-10-22T21:13:58.868Z,13.71
2022-10-22T21:16:26.774Z,13.69
2022-10-22T21:18:54.371Z,13.70
2022-10-22T21:21:22.178Z,13.66
2022-10-22T21:23:51.111Z,13.64
2022-10-22T21:26:21.000Z,13.62
2022-10-22T21:28:49.184Z,13.61
2022-10-22T21:31:21.901Z,13.58
2022-10-22T21:33:51.148Z,13.54
2022-10-22T21:36:22.628Z,13.52
2022-10-22T21:38:51.781Z,13.44
2022-10-22T21:41:22.612Z,13.44
2022-10-22T21:43:51.503Z,13.43
2022-10-22T21:46:21.719Z,13.39
2022-10-22T21:48:54.415Z,13.37
2022-10-22T21:51:23.667Z,13.35
2022-10-22T21:56:23.665Z,13.34
2022-10-22T21:58:51.643Z,13.33
2022-10-22T22:01:19.543Z,13.29
2022-10-22T22:03:49.045Z,13.29
2022-10-22T22:06:21.184Z,13.27
2022-10-22T22:08:50.624Z,13.26
2022-10-22T22:11:20.330Z,13.25
2022-10-22T22:13:49.879Z,13.25
2022-10-22T22:16:22.439Z,13.22
2022-10-22T22:18:53.581Z,13.19
2022-10-22T22:21:22.499Z,13.17
2022-10-22T22:23:51.678Z,13.18
2022-10-22T22:26:25.399Z,13.14
2022-10-22T22:28:58.495Z,13.15
2022-10-22T22:31:28.453Z,13.17
2022-10-22T22:33:59.460Z,13.17
2022-10-22T22:36:27.082Z,13.16
2022-10-22T22:38:56.305Z,13.15
2022-10-22T22:41:24.458Z,13.15
2022-10-22T22:43:52.273Z,13.14
2022-10-22T22:46:21.149Z,13.11
2022-10-22T22:48:49.737Z,13.08
2022-10-22T22:51:18.394Z,13.07
2022-10-22T22:53:46.243Z,13.06
2022-10-22T22:56:14.931Z,13.09
2022-10-22T22:58:43.415Z,13.08
2022-10-22T23:01:13.240Z,13.06
2022-10-22T23:03:42.819Z,13.03
2022-10-22T23:06:11.740Z,13.03
2022-10-22T23:08:39.707Z,13.04
2022-10-22T23:11:10.087Z,13.04
2022-10-22T23:13:37.911Z,13.04
2022-10-22T23:16:10.031Z,13.04
2022-10-22T23:18:37.711Z,13.03
2022-10-22T23:21:08.314Z,13.04
2022-10-22T23:23:36.014Z,13.04
2022-10-22T23:26:04.103Z,13.04
2022-10-22T23:28:31.859Z,13.04
2022-10-22T23:30:59.682Z,13.02
2022-10-22T23:33:27.530Z,13.02
2022-10-22T23:35:55.233Z,12.99
2022-10-22T23:38:24.395Z,12.97
2022-10-22T23:40:56.451Z,12.94
2022-10-22T23:43:24.426Z,12.89
2022-10-22T23:45:52.570Z,12.87
2022-10-22T23:48:20.674Z,12.82
2022-10-22T23:50:49.098Z,12.80
2022-10-22T23:53:16.982Z,12.80
2022-10-22T23:55:46.161Z,12.75
2022-10-22T23:58:13.881Z,12.68
